Independence, CA (93526)

1:05 PM PDT on September 20, 2014 (GMT -0700)
Fort Independence | Change Station
CLOSE
Current Station
Personal Weather Station
Location: Independence, CA
Elevation: 3980 ft
Nearby Weather Stations

Elev 3980 ft 36.83 °N, 118.22 °W | Updated 6 seconds ago

Clear
Clear
85.5 °F
Feels Like 82 °F
N
11.5
Wind Variable Wind from East
Gusts 11.5 mph

Today
High -- | Low -- °F
--% Chance of Precip.
Yesterday
High -- | Low -- °F
Precip. -- in
6:39 AM 6:52 PM
Waning Crescent, 10% visible
Pressure 29.88 in
Visibility 10.0 miles
Clouds Clear
Heat Index 82 °F
Dew Point 38 °F
Humidity 19%
Rainfall 0.00 in
Snow Depth 0 in , 0 in , 0 in
UV 9 out of 12
Pollen 6.20 out of 12
Air Quality Not available.
Flu Activity Not available.
METAR KBIH 201956Z AUTO 15010G17KT 10SM CLR 31/02 A3002 RMK AO2 SLP119 T03110022

More Conditions Fewer Conditions

Pressure 29.88 in
Visibility 10.0 miles
Clouds Clear
Heat Index 82 °F
Dew Point 38 °F
Humidity 19%
Rainfall 0.00 in
Snow Depth 0 in , 0 in , 0 in
UV 9 out of 12
Pollen 6.20 out of 12
Air Quality Not available.
Flu Activity Not available.
METAR KBIH 201956Z AUTO 15010G17KT 10SM CLR 31/02 A3002 RMK AO2 SLP119 T03110022

More Conditions Fewer Conditions

10-Day Weather Forecast

Almanac

Astronomy

Sep. 20, 2014 Rise Set
Actual Time 6:39 AM PDT 6:52 PM PDT
Civil Twilight 6:13 AM PDT 7:18 PM PDT
Nautical Twilight 5:43 AM PDT 7:48 PM PDT
Astronomical Twilight 5:12 AM PDT 8:19 PM PDT
Moon 3:26 AM PDT 4:55 PM PDT
Length of Visible Light 13h 05m
Length of Day
12h 13m
Tomorrow will be 2m 20s shorter.
Waning Crescent, 10% of the Moon is Illuminated
Today
Waning Crescent
Sep 24
New
Oct 1
First Quarter
Oct 8
Full
Oct 15
Last Quarter

Today's Extremes

State Highs State Lows

Community

WunderPhotos

Upload Photos

1,754,927 photos uploaded!

WunderBlogs® & News

Nearby

Snow Depth

Station Depth Elevation
Adin Mountain 0 in 6200 ft
Leavitt Meadows 0 in 7200 ft
Rubicon #2 0 in 7500 ft
Summit Meadow 0 in 9122 ft
Burnside Lake 0 in 8139 ft

Earthquake Activity

City Distance Mag. Time & Date
Inyokern, California 57 miles 3.1 5:33 PM PDT
2014-09-19
Corcoran, California 94 miles 2.9 3:59 PM PDT
2014-09-18
Minimum magnitude displayed is 2.5.

Coastal Water Temperatures

Place Temperature
No Stations Reporting

Nearby Weather Stations